Northport, MI (49670)

4:11 AM EST on February 13, 2016 (GMT -0500)
MesoWest | | Change Station
CLOSE
Current Station
Personal Weather Station
Location: Northport, MI
Elevation: 771 ft
Nearby Weather Stations
Active Advisory: Winter Weather Advisory Active Notice: Local Storm Report

Elev 771 ft 45.14 °N, 85.65 °W | Updated 1 hour ago

Haze
Haze
5.0 °F
Feels Like -5 °F
N
5.0
Wind Variable Wind from East
Gusts 0.0 mph

Today
High -- | Low -- °F
--% Chance of Precip.
Yesterday
High -- | Low -- °F
Precip. -- in
Pressure 30.36 in
Visibility 5.0 miles
Clouds Mostly Cloudy 1000 ft
Mostly Cloudy 1800 ft
Windchill -5 °F
Dew Point 2.0 °F
Humidity 86%
Rainfall in
Snow Depth Not available.
7:47 AM 6:06 PM
Waxing Crescent, 29% visible
METAR KCVX 130855Z AUTO 13006KT 5SM HZ BKN010 BKN018 M20/M23 A3036 RMK AO2 T12051235
Pressure 30.36 in
Visibility 5.0 miles
Clouds Mostly Cloudy 1000 ft
Mostly Cloudy 1800 ft
Windchill -5 °F
Dew Point 2.0 °F
Humidity 86%
Rainfall in
Snow Depth Not available.
7:47 AM 6:06 PM
Waxing Crescent, 29% visible
METAR KCVX 130855Z AUTO 13006KT 5SM HZ BKN010 BKN018 M20/M23 A3036 RMK AO2 T12051235

10-Day Weather Forecast

Almanac

Astronomy

Feb. 13, 2016 Rise Set
Actual Time
Civil Twilight
Nautical Twilight
Astronomical Twilight
Moon
Length of Visible Light
Length of Day
Tomorrow will be .
, % of the Moon is Illuminated

Today's Extremes

State Highs State Lows

Community

WunderPhotos

Upload Photos

1,892,536 photos uploaded!

WunderBlog® & News

Nearby

Air Quality

  Air Quality AQ Index Pollutant
Not available.

Snow Depth

Station Depth Elevation

Earthquake Activity

City Distance Mag. Time & Date
Minimum magnitude displayed is 2.5.

Coastal Water Temperatures

Place Temperature

Stations

Nearby Weather Stations

Station Location Temp. Windchill Dew Point Humidity Wind Precip. Elev Updated Type
                   

Watches & Warnings

Winter Weather Advisory
Issued: 3:53 AM EST Feb. 13, 2016 – National Weather Service

... Winter Weather Advisory remains in effect until noon EST
today...

* lake effect snow showers will continue today. The better
snowfall will be this morning.

* Total new snow accumulations will be from 1 to 4 inches. The
greatest amounts across parts of Leelanau... Antrim... Grand
Traverse and Kalkaska counties.

* Gusty northwest winds will produce areas of blowing and
drifting snow.

* Look for periods of poor visibility and slippery Road
conditions.